Time;durP1;ratioP1;P1;durP2;ratioP2;P2;SDS_P1;SDS_P2;PMS_P1;PMS_P2;Temp;Humidity;BMP_temperature;BMP_pressure;BME280_temperature;BME280_humidity;BME280_pressure;Samples;Min_cycle;Max_cycle;Signal;HPM_P1;HPM_P2
2023/07/16 00:02:04;;;;;;;11.50;5.70;;;20.00;99.90;;;;;;5107573;28;20296;-72
2023/07/16 00:04:31;;;;;;;6.00;4.38;;;19.90;99.90;;;;;;5108413;28;20042;-73
2023/07/16 00:06:56;;;;;;;9.27;4.70;;;20.00;99.90;;;;;;5108976;28;20019;-73
2023/07/16 00:09:23;;;;;;;8.30;4.82;;;19.90;99.90;;;;;;5109275;28;20081;-72
2023/07/16 00:11:48;;;;;;;9.07;4.65;;;19.70;99.90;;;;;;5107236;28;20032;-72
2023/07/16 00:14:14;;;;;;;14.30;4.90;;;19.60;99.90;;;;;;5109418;28;20744;-71
2023/07/16 00:16:40;;;;;;;13.93;4.63;;;19.40;99.90;;;;;;5108718;28;20043;-73
2023/07/16 00:19:05;;;;;;;14.88;4.60;;;19.30;99.90;;;;;;5107238;28;20486;-72
2023/07/16 00:21:31;;;;;;;8.05;4.47;;;19.40;99.90;;;;;;5109712;28;20028;-73
2023/07/16 00:23:57;;;;;;;15.13;4.00;;;19.30;99.90;;;;;;5089538;28;20046;-75
2023/07/16 00:26:22;;;;;;;7.68;4.00;;;19.20;99.90;;;;;;5108535;28;20031;-73
2023/07/16 00:28:48;;;;;;;6.63;3.90;;;19.10;99.90;;;;;;5108125;28;20031;-73
2023/07/16 00:31:14;;;;;;;7.57;3.88;;;19.00;99.90;;;;;;5108020;28;20067;-74
2023/07/16 00:33:39;;;;;;;6.53;4.07;;;19.00;99.90;;;;;;5108381;28;20422;-74
2023/07/16 00:36:05;;;;;;;8.50;4.20;;;18.90;99.90;;;;;;5107393;28;20039;-72
2023/07/16 00:38:31;;;;;;;14.65;4.80;;;18.90;99.90;;;;;;5108760;28;20044;-74
2023/07/16 00:40:57;;;;;;;10.90;4.65;;;18.80;99.90;;;;;;5108536;28;20034;-72
2023/07/16 00:43:22;;;;;;;7.28;3.55;;;18.80;99.90;;;;;;5108552;28;20028;-74
2023/07/16 00:45:49;;;;;;;7.25;3.15;;;18.90;99.90;;;;;;5107982;28;20063;-74
2023/07/16 00:48:15;;;;;;;9.65;3.50;;;18.80;99.90;;;;;;5108858;28;20051;-73
2023/07/16 00:50:41;;;;;;;5.95;3.42;;;18.80;99.90;;;;;;5108226;28;20069;-73
2023/07/16 00:53:12;;;;;;;7.43;3.20;;;18.90;99.90;;;;;;5106888;28;20023;-74
2023/07/16 00:55:38;;;;;;;5.70;2.95;;;18.90;99.90;;;;;;5109261;28;20030;-74
2023/07/16 00:58:06;;;;;;;6.00;3.35;;;19.00;99.90;;;;;;5107316;28;20032;-73
2023/07/16 01:00:33;;;;;;;6.55;2.97;;;19.00;99.90;;;;;;5108516;27;20054;-74
2023/07/16 01:03:00;;;;;;;9.80;3.70;;;19.00;99.90;;;;;;5107603;28;20019;-72
2023/07/16 01:05:30;;;;;;;6.13;2.95;;;18.90;99.90;;;;;;5109000;28;20039;-74
2023/07/16 01:08:02;;;;;;;4.70;2.70;;;18.90;99.90;;;;;;5107919;28;20027;-74
2023/07/16 01:10:28;;;;;;;6.47;2.88;;;18.90;99.90;;;;;;5118757;28;20045;-74
2023/07/16 01:12:56;;;;;;;4.28;2.45;;;18.90;99.90;;;;;;5106201;28;20031;-73
2023/07/16 01:15:22;;;;;;;4.47;2.67;;;18.90;99.90;;;;;;5085128;28;21769;-73
2023/07/16 01:17:47;;;;;;;4.68;2.58;;;18.90;99.90;;;;;;5097576;28;20028;-73
2023/07/16 01:20:13;;;;;;;4.57;2.70;;;18.90;99.90;;;;;;5107028;28;20028;-73
2023/07/16 01:23:21;;;;;;;5.22;2.60;;;18.80;99.90;;;;;;5090167;28;20364;-73
2023/07/16 01:26:13;;;;;;;4.05;2.50;;;18.80;99.90;;;;;;5072192;28;20075;-73
2023/07/16 01:28:51;;;;;;;3.50;2.45;;;18.80;99.90;;;;;;5106968;28;20020;-74
2023/07/16 01:31:18;;;;;;;4.18;2.22;;;18.70;99.90;;;;;;5108052;28;20555;-73
2023/07/16 01:33:45;;;;;;;4.43;2.50;;;18.70;99.90;;;;;;5101104;28;20024;-74
2023/07/16 01:36:11;;;;;;;4.55;2.35;;;18.70;99.90;;;;;;5087661;28;20226;-73
2023/07/16 01:38:37;;;;;;;3.78;2.30;;;18.70;99.90;;;;;;5088343;28;20036;-73
2023/07/16 01:41:02;;;;;;;3.40;2.20;;;18.70;99.90;;;;;;5103244;28;20097;-73
2023/07/16 01:43:28;;;;;;;3.75;2.22;;;18.80;99.90;;;;;;5126386;28;20115;-75
2023/07/16 01:45:54;;;;;;;3.55;2.20;;;18.80;99.90;;;;;;5088352;28;20474;-72
2023/07/16 01:48:38;;;;;;;3.78;1.85;;;18.80;99.90;;;;;;5107324;28;20499;-74
2023/07/16 01:51:04;;;;;;;6.47;2.08;;;18.90;99.90;;;;;;5107722;28;20048;-73
2023/07/16 01:53:31;;;;;;;5.22;1.98;;;18.90;99.90;;;;;;5108111;28;20093;-74
2023/07/16 01:55:57;;;;;;;4.10;1.88;;;18.90;99.90;;;;;;5087976;28;20477;-73
2023/07/16 01:58:23;;;;;;;3.13;1.80;;;18.80;99.90;;;;;;5112601;28;20059;-74
2023/07/16 02:00:50;;;;;;;4.35;1.80;;;18.70;99.90;;;;;;5105794;28;20058;-74
2023/07/16 02:03:16;;;;;;;5.25;2.00;;;18.70;99.90;;;;;;5106787;28;20047;-73
2023/07/16 02:05:41;;;;;;;4.65;1.80;;;18.70;99.90;;;;;;5088838;28;20019;-73
2023/07/16 02:08:07;;;;;;;6.60;1.95;;;18.70;99.90;;;;;;5087381;28;20119;-74
2023/07/16 02:10:32;;;;;;;4.65;1.80;;;18.70;99.90;;;;;;5103172;28;20147;-73
2023/07/16 02:12:58;;;;;;;3.55;1.90;;;18.70;99.90;;;;;;5091282;28;20110;-73
2023/07/16 02:15:24;;;;;;;3.90;1.90;;;18.80;99.90;;;;;;5111814;28;20028;-73
2023/07/16 02:17:49;;;;;;;3.97;1.88;;;18.80;99.90;;;;;;5110783;28;20035;-72
2023/07/16 02:20:15;;;;;;;4.03;2.00;;;18.80;99.90;;;;;;5109588;28;20039;-72
2023/07/16 02:22:41;;;;;;;4.28;2.28;;;18.80;99.90;;;;;;5109237;28;20034;-73
2023/07/16 02:25:07;;;;;;;5.38;2.00;;;18.90;99.90;;;;;;5111289;28;20024;-73
2023/07/16 02:27:32;;;;;;;3.03;1.90;;;19.00;99.90;;;;;;5111962;28;20038;-73
2023/07/16 02:29:58;;;;;;;3.17;1.73;;;19.00;99.90;;;;;;5108127;28;20062;-73
2023/07/16 02:32:24;;;;;;;3.00;1.92;;;19.00;99.90;;;;;;5105494;28;20357;-72
2023/07/16 02:34:49;;;;;;;3.72;1.95;;;18.90;99.90;;;;;;5109498;28;20185;-73
2023/07/16 02:37:15;;;;;;;5.35;2.00;;;18.90;99.90;;;;;;5108182;28;20058;-73
2023/07/16 02:39:43;;;;;;;6.72;1.92;;;19.00;99.90;;;;;;5110049;28;20067;-73
2023/07/16 02:42:08;;;;;;;3.63;2.30;;;19.10;99.90;;;;;;5091650;28;20027;-72
2023/07/16 02:44:38;;;;;;;6.15;2.58;;;19.20;99.90;;;;;;5110542;28;20028;-73
2023/07/16 02:47:04;;;;;;;2.95;2.10;;;19.20;99.90;;;;;;5110414;28;20028;-72
2023/07/16 02:49:29;;;;;;;5.03;2.00;;;19.10;99.90;;;;;;5111500;28;20059;-72
2023/07/16 02:51:55;;;;;;;7.68;2.17;;;19.10;99.90;;;;;;5113345;27;20111;-71
2023/07/16 02:54:20;;;;;;;3.88;2.40;;;19.10;99.90;;;;;;5107560;27;20091;-73
2023/07/16 02:56:47;;;;;;;2.78;2.10;;;19.10;99.90;;;;;;5102897;28;20028;-73
2023/07/16 02:59:12;;;;;;;3.20;2.28;;;19.00;99.90;;;;;;5110459;28;20079;-72
2023/07/16 03:01:38;;;;;;;4.40;2.58;;;19.00;99.90;;;;;;5108498;28;20020;-72
2023/07/16 03:04:04;;;;;;;5.65;2.47;;;19.00;99.90;;;;;;5098602;28;20040;-73
2023/07/16 03:06:29;;;;;;;4.50;2.42;;;19.00;99.90;;;;;;5089401;28;20062;-73
2023/07/16 03:08:55;;;;;;;6.25;2.63;;;19.10;99.90;;;;;;5116083;27;20031;-72
2023/07/16 03:11:21;;;;;;;4.45;3.03;;;19.10;99.90;;;;;;5124979;27;20076;-72
2023/07/16 03:13:46;;;;;;;6.95;2.17;;;19.00;99.90;;;;;;5091226;28;20030;-72
2023/07/16 03:16:12;;;;;;;5.47;2.78;;;18.90;99.90;;;;;;5101232;27;20473;-72
2023/07/16 03:18:37;;;;;;;4.75;2.20;;;18.90;99.90;;;;;;5090404;28;20036;-73
2023/07/16 03:21:03;;;;;;;4.18;2.13;;;19.00;99.90;;;;;;5103158;28;20032;-72
2023/07/16 03:23:29;;;;;;;3.60;2.50;;;18.90;99.90;;;;;;5110802;28;20027;-72
2023/07/16 03:25:54;;;;;;;4.90;2.40;;;18.90;99.90;;;;;;5110330;28;20020;-73
2023/07/16 03:28:20;;;;;;;4.35;2.22;;;18.80;99.90;;;;;;5102661;28;20063;-73
2023/07/16 03:30:50;;;;;;;4.95;2.00;;;18.80;99.90;;;;;;5090171;28;20070;-73
2023/07/16 03:33:16;;;;;;;3.90;2.25;;;18.80;99.90;;;;;;5089617;27;20024;-71
2023/07/16 03:35:46;;;;;;;3.47;2.25;;;18.70;99.90;;;;;;5107134;28;20043;-71
2023/07/16 03:38:13;;;;;;;3.47;1.65;;;18.60;99.90;;;;;;5109800;28;20047;-72
2023/07/16 03:40:39;;;;;;;4.88;2.38;;;18.60;99.90;;;;;;5109573;28;20027;-72
2023/07/16 03:43:05;;;;;;;8.02;2.30;;;18.60;99.90;;;;;;5109519;28;20369;-72
2023/07/16 03:45:31;;;;;;;4.88;1.95;;;18.50;99.90;;;;;;5109140;28;20050;-72
2023/07/16 03:47:56;;;;;;;4.30;2.00;;;18.60;99.90;;;;;;5113220;27;20050;-73
2023/07/16 03:50:22;;;;;;;6.07;2.25;;;18.50;99.90;;;;;;5102221;27;20072;-72
2023/07/16 03:52:48;;;;;;;7.40;2.20;;;18.50;99.90;;;;;;5108811;28;20553;-74
2023/07/16 03:55:13;;;;;;;4.88;2.15;;;18.40;99.90;;;;;;5110004;28;20028;-72
2023/07/16 03:57:39;;;;;;;4.10;1.90;;;18.20;99.90;;;;;;5109395;28;20076;-72
2023/07/16 04:00:08;;;;;;;5.15;2.10;;;18.10;99.90;;;;;;5108780;28;20132;-72
2023/07/16 04:02:34;;;;;;;3.75;2.20;;;18.10;99.90;;;;;;5112783;27;20027;-73
2023/07/16 04:04:59;;;;;;;1.88;1.52;;;18.20;99.90;;;;;;5130270;27;20045;-71
2023/07/16 04:07:25;;;;;;;3.60;1.90;;;18.20;99.90;;;;;;5130000;27;20360;-72
2023/07/16 04:09:51;;;;;;;6.72;2.30;;;18.40;99.90;;;;;;5090203;28;20488;-72
2023/07/16 04:12:17;;;;;;;3.95;2.30;;;18.40;99.90;;;;;;5088476;28;20468;-73
2023/07/16 04:14:42;;;;;;;6.05;1.83;;;18.30;99.90;;;;;;5072214;28;20035;-72
2023/07/16 04:17:08;;;;;;;5.10;2.10;;;18.30;99.90;;;;;;5107756;28;20030;-73
2023/07/16 04:19:34;;;;;;;4.15;2.13;;;18.30;99.90;;;;;;5110084;28;20036;-72
2023/07/16 04:22:00;;;;;;;4.20;2.08;;;18.30;99.90;;;;;;5109259;28;20042;-71
2023/07/16 04:24:26;;;;;;;3.53;2.30;;;18.30;99.90;;;;;;5108150;28;20076;-73
2023/07/16 04:26:53;;;;;;;3.83;2.05;;;18.40;99.90;;;;;;5107826;28;20024;-73
2023/07/16 04:29:18;;;;;;;6.25;2.30;;;18.40;99.90;;;;;;5107643;28;20032;-72
2023/07/16 04:31:44;;;;;;;4.97;2.60;;;18.40;99.90;;;;;;5107256;28;20145;-72
2023/07/16 04:34:09;;;;;;;3.65;2.20;;;18.30;99.90;;;;;;5102977;28;20031;-72
2023/07/16 04:36:35;;;;;;;14.25;2.60;;;18.10;99.90;;;;;;5098699;28;20084;-72
2023/07/16 04:39:01;;;;;;;9.65;2.40;;;18.00;99.90;;;;;;5108526;28;20548;-72
2023/07/16 04:41:27;;;;;;;10.43;2.55;;;18.00;99.90;;;;;;5107963;28;20032;-73
2023/07/16 04:43:53;;;;;;;7.40;2.03;;;17.90;99.90;;;;;;5108477;28;20062;-71
2023/07/16 04:46:18;;;;;;;5.18;2.05;;;17.80;99.90;;;;;;5095412;28;20064;-72
2023/07/16 04:48:44;;;;;;;7.78;2.33;;;17.80;99.90;;;;;;5089471;28;20090;-73
2023/07/16 04:51:09;;;;;;;8.15;2.30;;;17.80;99.90;;;;;;5106316;28;20046;-72
2023/07/16 04:53:35;;;;;;;6.25;2.20;;;17.80;99.90;;;;;;5107960;28;20046;-72
2023/07/16 04:56:01;;;;;;;5.60;2.20;;;17.80;99.90;;;;;;5107160;28;20114;-72
2023/07/16 04:58:26;;;;;;;6.05;1.92;;;17.70;99.90;;;;;;5108285;28;20038;-73
2023/07/16 05:00:52;;;;;;;6.88;1.90;;;17.60;99.90;;;;;;5107889;28;20036;-73
2023/07/16 05:03:17;;;;;;;3.53;2.13;;;17.50;99.90;;;;;;5106332;28;20030;-71
2023/07/16 05:05:43;;;;;;;7.32;2.20;;;17.40;99.90;;;;;;5107983;28;20028;-72
2023/07/16 05:08:09;;;;;;;4.93;1.98;;;17.40;99.90;;;;;;5089227;28;20035;-73
2023/07/16 05:10:34;;;;;;;4.60;1.90;;;17.40;99.90;;;;;;5107661;28;20036;-73
2023/07/16 05:13:00;;;;;;;7.40;2.15;;;17.40;99.90;;;;;;5103964;28;20028;-73
2023/07/16 05:15:26;;;;;;;7.70;2.10;;;17.40;99.90;;;;;;5107967;28;20034;-73
2023/07/16 05:17:51;;;;;;;6.72;2.13;;;17.40;99.90;;;;;;5110587;28;20051;-73
2023/07/16 05:20:17;;;;;;;7.00;2.15;;;17.50;99.90;;;;;;5107515;28;20118;-73
2023/07/16 05:22:43;;;;;;;6.55;2.45;;;17.50;99.90;;;;;;5107410;28;20440;-72
2023/07/16 05:25:09;;;;;;;7.35;2.47;;;17.50;99.90;;;;;;5102941;28;20127;-74
2023/07/16 05:27:35;;;;;;;6.50;2.20;;;17.50;99.90;;;;;;5104335;28;20551;-73
2023/07/16 05:30:01;;;;;;;5.18;2.00;;;17.40;99.90;;;;;;5107809;28;20048;-73
2023/07/16 05:32:26;;;;;;;7.10;2.05;;;17.40;99.90;;;;;;5097702;28;20070;-72
2023/07/16 05:34:52;;;;;;;5.78;2.17;;;17.40;99.90;;;;;;5106059;28;20023;-73
2023/07/16 05:37:18;;;;;;;6.55;2.05;;;17.40;99.90;;;;;;5102300;28;20054;-73
2023/07/16 05:39:43;;;;;;;10.40;2.15;;;17.40;99.90;;;;;;5109843;28;20030;-73
2023/07/16 05:42:09;;;;;;;9.15;2.40;;;17.50;99.90;;;;;;5101772;28;21853;-74
2023/07/16 05:44:35;;;;;;;6.70;2.30;;;17.50;99.90;;;;;;5106059;28;20110;-73
2023/07/16 05:47:01;;;;;;;11.05;2.50;;;17.50;99.90;;;;;;5115325;27;20066;-75
2023/07/16 05:49:27;;;;;;;5.38;2.00;;;17.70;99.90;;;;;;5108352;28;20721;-73
2023/07/16 05:51:54;;;;;;;5.68;2.30;;;17.80;99.90;;;;;;5108937;27;20043;-73
2023/07/16 05:54:19;;;;;;;19.35;2.20;;;17.90;99.90;;;;;;5108651;28;20028;-72
2023/07/16 05:56:45;;;;;;;7.00;2.30;;;18.00;99.90;;;;;;5085809;28;20205;-73
2023/07/16 05:59:11;;;;;;;7.65;2.33;;;18.20;99.90;;;;;;5107075;28;20035;-72
2023/07/16 06:01:36;;;;;;;8.85;2.33;;;18.30;99.90;;;;;;5106246;28;20041;-72
2023/07/16 06:04:02;;;;;;;10.07;2.20;;;18.10;99.90;;;;;;5107408;27;20027;-74
2023/07/16 06:06:28;;;;;;;7.85;2.35;;;18.10;99.90;;;;;;5107481;27;20585;-73
2023/07/16 06:08:54;;;;;;;11.05;3.15;;;18.20;99.90;;;;;;5101298;28;20150;-73
2023/07/16 06:11:20;;;;;;;10.63;2.53;;;18.20;99.90;;;;;;5103663;28;20479;-73
2023/07/16 06:13:46;;;;;;;5.07;2.00;;;18.30;99.90;;;;;;5100804;27;20161;-73
2023/07/16 06:16:12;;;;;;;13.50;2.53;;;18.40;99.90;;;;;;5103541;28;20095;-73
2023/07/16 06:18:37;;;;;;;12.55;2.30;;;18.40;99.90;;;;;;5110892;27;20076;-73
2023/07/16 06:21:06;;;;;;;6.20;2.33;;;18.30;99.90;;;;;;5116923;27;20036;-73
2023/07/16 06:23:32;;;;;;;7.45;2.00;;;18.10;99.90;;;;;;5108269;28;20480;-73
2023/07/16 06:25:57;;;;;;;11.30;2.50;;;18.00;99.90;;;;;;5110440;28;20031;-73
2023/07/16 06:28:23;;;;;;;7.47;2.25;;;17.90;99.90;;;;;;5108709;28;20409;-73
2023/07/16 06:30:51;;;;;;;9.48;2.20;;;17.80;99.90;;;;;;5105791;27;20055;-74
2023/07/16 06:33:18;;;;;;;11.60;2.83;;;17.70;99.90;;;;;;5106623;28;20023;-70
2023/07/16 06:35:47;;;;;;;6.38;2.83;;;17.70;99.90;;;;;;5101772;28;20023;-71
2023/07/16 06:38:14;;;;;;;13.23;2.30;;;17.60;99.90;;;;;;5106817;27;20019;-70
2023/07/16 06:40:45;;;;;;;11.77;2.30;;;17.50;99.90;;;;;;5107144;27;20149;-70
2023/07/16 06:43:11;;;;;;;8.90;2.95;;;17.50;99.90;;;;;;5111528;27;20078;-71
2023/07/16 06:45:36;;;;;;;7.78;2.40;;;17.60;99.90;;;;;;5099423;28;20055;-69
2023/07/16 06:48:02;;;;;;;10.77;2.60;;;17.60;99.90;;;;;;5100632;28;20044;-70
2023/07/16 06:50:27;;;;;;;8.10;2.30;;;17.70;99.90;;;;;;5094108;28;20045;-70
2023/07/16 06:52:53;;;;;;;10.75;2.40;;;17.80;99.90;;;;;;5103554;28;20034;-70
2023/07/16 06:55:19;;;;;;;6.07;2.60;;;17.80;99.90;;;;;;5102107;27;20056;-71
2023/07/16 06:57:44;;;;;;;6.72;2.67;;;17.90;99.90;;;;;;5094213;28;20326;-71
2023/07/16 07:00:11;;;;;;;10.70;3.55;;;17.90;99.90;;;;;;5104418;28;20085;-69
2023/07/16 07:02:37;;;;;;;6.15;2.47;;;17.80;99.90;;;;;;5096620;28;20024;-70
2023/07/16 07:05:03;;;;;;;6.57;2.05;;;17.80;99.90;;;;;;5101556;28;20043;-69
2023/07/16 07:07:28;;;;;;;4.97;2.38;;;17.80;99.90;;;;;;5095382;28;20036;-70
2023/07/16 07:09:54;;;;;;;8.82;2.13;;;17.90;99.90;;;;;;5103711;27;20728;-71
2023/07/16 07:12:20;;;;;;;6.25;2.58;;;18.10;99.90;;;;;;5105137;27;20035;-72
2023/07/16 07:14:47;;;;;;;5.57;2.00;;;18.20;99.90;;;;;;5100544;28;20031;-71
2023/07/16 07:17:13;;;;;;;8.07;2.40;;;18.30;99.90;;;;;;5100833;28;20032;-72
2023/07/16 07:19:39;;;;;;;7.18;2.15;;;18.40;99.90;;;;;;5103990;28;20046;-72
2023/07/16 07:22:05;;;;;;;6.30;2.22;;;18.50;99.90;;;;;;5109317;28;20676;-72
2023/07/16 07:24:30;;;;;;;8.75;2.35;;;18.50;99.90;;;;;;5106254;28;20026;-72
2023/07/16 07:26:56;;;;;;;5.60;2.50;;;18.60;99.90;;;;;;5101644;28;20039;-72
2023/07/16 07:29:21;;;;;;;14.30;2.65;;;18.60;99.90;;;;;;5106151;28;20034;-71
2023/07/16 07:31:47;;;;;;;8.98;2.10;;;18.80;99.90;;;;;;5106455;28;20036;-71
2023/07/16 07:34:13;;;;;;;5.65;2.53;;;18.80;99.90;;;;;;5102326;27;20028;-72
2023/07/16 07:36:38;;;;;;;7.82;2.25;;;18.90;99.90;;;;;;5111249;27;20053;-71
2023/07/16 07:39:04;;;;;;;5.85;2.20;;;19.00;99.90;;;;;;5107142;28;20061;-72
2023/07/16 07:41:30;;;;;;;12.02;2.42;;;19.20;99.90;;;;;;5112284;27;20032;-71
2023/07/16 07:43:55;;;;;;;4.35;2.00;;;19.50;99.90;;;;;;5091417;28;20118;-71
2023/07/16 07:46:21;;;;;;;8.52;2.70;;;19.40;99.90;;;;;;5107920;28;20063;-71
2023/07/16 07:48:47;;;;;;;7.13;1.90;;;19.50;99.90;;;;;;5098763;27;20044;-73
2023/07/16 07:51:12;;;;;;;7.18;2.50;;;19.60;99.90;;;;;;5103416;28;20077;-71
2023/07/16 07:53:38;;;;;;;15.93;2.55;;;19.80;99.90;;;;;;5098527;28;20062;-72
2023/07/16 07:56:04;;;;;;;5.90;1.95;;;19.80;99.90;;;;;;5109388;27;20031;-72
2023/07/16 07:58:30;;;;;;;6.05;2.13;;;19.70;99.90;;;;;;5099095;28;20547;-72
2023/07/16 08:00:55;;;;;;;5.90;2.03;;;19.50;99.90;;;;;;5109821;28;20387;-72
2023/07/16 08:03:21;;;;;;;10.35;2.30;;;19.60;99.90;;;;;;5107567;28;20035;-74
2023/07/16 08:05:49;;;;;;;8.40;2.08;;;19.80;99.90;;;;;;5125958;27;20034;-71
2023/07/16 08:08:15;;;;;;;6.47;2.28;;;19.90;99.90;;;;;;5106797;28;20429;-72
2023/07/16 08:10:42;;;;;;;7.55;2.38;;;19.90;99.90;;;;;;5109924;27;20044;-71
2023/07/16 08:13:08;;;;;;;7.88;2.38;;;19.80;99.90;;;;;;5103117;28;20069;-72
2023/07/16 08:15:34;;;;;;;4.80;2.50;;;19.80;99.90;;;;;;5105750;28;20028;-71
2023/07/16 08:17:59;;;;;;;11.52;2.40;;;19.70;99.90;;;;;;5107948;28;20035;-72
2023/07/16 08:20:26;;;;;;;14.10;2.63;;;19.50;99.90;;;;;;5088035;28;20135;-72
2023/07/16 08:22:52;;;;;;;11.45;2.58;;;19.50;99.90;;;;;;5099119;28;20035;-72
2023/07/16 08:25:17;;;;;;;7.88;2.08;;;19.40;99.90;;;;;;5105508;27;20025;-71
2023/07/16 08:27:43;;;;;;;10.15;2.40;;;19.30;99.90;;;;;;5101787;27;20060;-73
2023/07/16 08:30:09;;;;;;;11.00;2.22;;;19.30;99.90;;;;;;5109338;28;20035;-72
2023/07/16 08:32:35;;;;;;;8.32;1.92;;;19.40;99.90;;;;;;5101586;28;20024;-73
2023/07/16 08:35:00;;;;;;;12.65;2.30;;;19.50;99.90;;;;;;5115357;27;20043;-71
2023/07/16 08:37:26;;;;;;;7.55;1.98;;;19.50;99.90;;;;;;5107503;28;20031;-70
2023/07/16 08:39:54;;;;;;;10.38;2.47;;;19.60;99.90;;;;;;5103577;28;20061;-71
2023/07/16 08:42:21;;;;;;;11.75;2.38;;;19.90;99.90;;;;;;5100117;28;20034;-71
2023/07/16 08:44:50;;;;;;;9.07;2.60;;;20.00;99.90;;;;;;5108734;28;20110;-71
2023/07/16 08:47:16;;;;;;;8.35;2.50;;;20.10;99.90;;;;;;5108242;28;20031;-70
2023/07/16 08:49:55;;;;;;;6.88;1.77;;;20.20;99.90;;;;;;5108245;28;20042;-72
2023/07/16 08:52:21;;;;;;;8.68;2.00;;;20.00;99.90;;;;;;5107542;28;20373;-72
2023/07/16 08:54:47;;;;;;;5.40;1.85;;;19.90;99.90;;;;;;5107241;28;20038;-71
2023/07/16 08:57:14;;;;;;;6.85;2.10;;;19.80;99.90;;;;;;5106458;27;20061;-72
2023/07/16 08:59:40;;;;;;;7.00;2.10;;;19.80;99.90;;;;;;5101413;28;20032;-71
2023/07/16 09:02:06;;;;;;;12.02;2.20;;;19.90;99.90;;;;;;5104464;28;20839;-72
2023/07/16 09:04:32;;;;;;;4.68;2.03;;;20.10;99.90;;;;;;5104877;28;20062;-72
2023/07/16 09:06:58;;;;;;;5.15;2.10;;;20.30;99.90;;;;;;5107947;28;20027;-72
2023/07/16 09:09:24;;;;;;;8.57;2.35;;;20.50;99.90;;;;;;5100338;28;20683;-72
2023/07/16 09:11:50;;;;;;;6.18;2.60;;;20.80;99.90;;;;;;5108223;28;20024;-71
2023/07/16 09:14:20;;;;;;;6.72;2.10;;;20.90;99.90;;;;;;5107974;28;20040;-72
2023/07/16 09:16:49;;;;;;;7.60;2.47;;;20.90;99.90;;;;;;5106826;28;20080;-71
2023/07/16 09:19:17;;;;;;;6.87;2.40;;;21.10;99.90;;;;;;5112655;28;20822;-70
2023/07/16 09:21:43;;;;;;;4.88;2.08;;;20.80;99.90;;;;;;5111431;28;20265;-71
2023/07/16 09:24:09;;;;;;;6.15;1.95;;;20.50;99.90;;;;;;5110319;28;20027;-72
2023/07/16 09:26:38;;;;;;;6.15;2.13;;;20.30;99.90;;;;;;5105730;28;20047;-72
2023/07/16 09:29:10;;;;;;;7.72;3.28;;;20.50;99.90;;;;;;5110981;27;20028;-72
2023/07/16 09:31:35;;;;;;;4.45;2.35;;;20.80;99.90;;;;;;5111680;28;20670;-72
2023/07/16 09:34:01;;;;;;;11.20;1.98;;;20.90;99.90;;;;;;5106710;28;20031;-72
2023/07/16 09:36:27;;;;;;;6.82;2.28;;;21.00;99.90;;;;;;5100754;28;20020;-71
2023/07/16 09:38:57;;;;;;;6.38;2.17;;;20.70;99.90;;;;;;5108844;28;20019;-72
2023/07/16 09:41:23;;;;;;;3.92;2.35;;;20.60;99.90;;;;;;5110032;28;20028;-72
2023/07/16 09:43:49;;;;;;;10.38;2.65;;;20.90;99.90;;;;;;5115884;27;20843;-72
2023/07/16 09:46:14;;;;;;;9.48;2.08;;;21.30;99.90;;;;;;5111616;28;20102;-72
2023/07/16 09:48:40;;;;;;;8.30;2.35;;;21.20;99.90;;;;;;5109646;27;20055;-72
2023/07/16 09:51:09;;;;;;;4.72;1.92;;;20.90;99.90;;;;;;5118307;27;20043;-72
2023/07/16 09:53:36;;;;;;;6.43;2.33;;;21.10;99.90;;;;;;5110721;28;20049;-71
2023/07/16 09:56:04;;;;;;;8.45;2.30;;;21.40;99.90;;;;;;5107422;28;20028;-71
2023/07/16 09:58:30;;;;;;;7.45;2.30;;;21.60;99.90;;;;;;5109832;28;20036;-71
2023/07/16 10:00:56;;;;;;;10.07;2.30;;;21.70;99.90;;;;;;5111642;28;20042;-71
2023/07/16 10:03:22;;;;;;;10.77;2.63;;;21.60;99.90;;;;;;5110623;28;20391;-72
2023/07/16 10:05:49;;;;;;;6.75;2.08;;;21.50;99.90;;;;;;5109880;28;20027;-72
2023/07/16 10:08:20;;;;;;;8.98;2.38;;;21.30;99.90;;;;;;5111134;28;20034;-71
2023/07/16 10:10:55;;;;;;;6.20;2.15;;;21.20;99.90;;;;;;5110284;28;20035;-71
2023/07/16 10:13:23;;;;;;;5.20;2.30;;;21.20;99.90;;;;;;5110038;28;20483;-70
2023/07/16 10:15:53;;;;;;;6.63;2.40;;;21.20;99.90;;;;;;5104652;28;20036;-72
2023/07/16 10:18:30;;;;;;;8.55;2.60;;;21.20;99.90;;;;;;5111486;28;20016;-71
2023/07/16 10:21:09;;;;;;;5.32;1.95;;;21.20;99.90;;;;;;5107932;28;20391;-72
2023/07/16 10:23:39;;;;;;;5.00;2.05;;;21.20;99.90;;;;;;5106138;27;20047;-71
2023/07/16 10:26:06;;;;;;;11.20;2.45;;;21.40;99.90;;;;;;5100381;28;20035;-72
2023/07/16 10:28:36;;;;;;;6.10;2.08;;;21.40;99.90;;;;;;5104522;28;20032;-69
2023/07/16 10:31:02;;;;;;;9.50;2.65;;;21.90;99.90;;;;;;5107204;28;20047;-71
2023/07/16 10:33:28;;;;;;;6.40;2.30;;;22.10;99.90;;;;;;5091964;28;20056;-73
2023/07/16 10:35:58;;;;;;;6.05;2.40;;;22.20;99.90;;;;;;5103797;28;20136;-72
2023/07/16 10:38:24;;;;;;;5.43;2.38;;;22.40;99.90;;;;;;5103651;28;20035;-71
2023/07/16 10:40:50;;;;;;;7.18;2.65;;;22.10;99.90;;;;;;5108837;27;20039;-71
2023/07/16 10:43:16;;;;;;;6.63;2.40;;;22.00;99.90;;;;;;5110230;28;21080;-73
2023/07/16 10:45:41;;;;;;;5.47;2.20;;;22.00;99.90;;;;;;5109513;28;20114;-72
2023/07/16 10:48:07;;;;;;;5.43;2.03;;;22.20;99.90;;;;;;5109516;28;20047;-71
2023/07/16 10:50:34;;;;;;;4.65;2.33;;;22.40;99.90;;;;;;5109402;28;20043;-71
2023/07/16 10:53:00;;;;;;;7.90;2.00;;;22.50;99.90;;;;;;5103544;28;20363;-72
2023/07/16 10:55:28;;;;;;;12.80;2.60;;;22.60;99.90;;;;;;5095837;28;20035;-69
2023/07/16 10:57:54;;;;;;;5.53;2.10;;;22.50;99.90;;;;;;5099981;28;20460;-72
2023/07/16 11:00:21;;;;;;;6.82;2.22;;;22.30;99.90;;;;;;5103298;28;20050;-72
2023/07/16 11:02:47;;;;;;;15.13;2.65;;;22.00;99.90;;;;;;5106711;28;20028;-72
2023/07/16 11:05:14;;;;;;;6.78;3.75;;;22.10;99.90;;;;;;5105315;28;20644;-71
2023/07/16 11:07:49;;;;;;;8.05;2.58;;;22.10;99.90;;;;;;5113218;27;20784;-70
2023/07/16 11:10:16;;;;;;;4.85;2.45;;;22.10;99.90;;;;;;5107207;28;20039;-70
2023/07/16 11:12:42;;;;;;;4.88;1.95;;;22.40;99.90;;;;;;5107988;28;20024;-72
2023/07/16 11:15:09;;;;;;;5.90;2.60;;;22.50;99.90;;;;;;5107135;27;20103;-71
2023/07/16 11:17:37;;;;;;;8.25;2.67;;;22.80;99.90;;;;;;5114618;27;20023;-71
2023/07/16 11:20:06;;;;;;;8.45;2.97;;;22.80;99.90;;;;;;5110096;28;20035;-71
2023/07/16 11:22:32;;;;;;;5.72;2.10;;;22.70;99.90;;;;;;5108928;28;20032;-71
2023/07/16 11:24:57;;;;;;;4.28;2.25;;;22.80;99.90;;;;;;5110425;28;20042;-71
2023/07/16 11:27:27;;;;;;;5.05;3.05;;;22.90;99.90;;;;;;5112531;27;20035;-71
2023/07/16 11:30:00;;;;;;;7.13;2.22;;;23.20;99.90;;;;;;5111778;27;20557;-70
2023/07/16 11:32:36;;;;;;;5.28;2.50;;;22.90;99.90;;;;;;5109192;27;20467;-70
2023/07/16 11:35:07;;;;;;;3.75;2.20;;;22.70;99.90;;;;;;5108114;28;20020;-71
2023/07/16 11:37:34;;;;;;;;;;;22.70;99.90;;;;;;5109481;28;20026;-71
2023/07/16 11:40:13;;;;;;;4.95;2.50;;;22.80;99.90;;;;;;5107846;28;19915;-71
2023/07/16 11:42:41;;;;;;;6.18;2.33;;;23.00;99.90;;;;;;5091549;28;20323;-70
2023/07/16 11:45:27;;;;;;;5.70;2.40;;;23.30;99.90;;;;;;5108858;27;20110;-72
2023/07/16 11:47:53;;;;;;;5.03;2.42;;;23.70;99.90;;;;;;5111614;27;20036;-71
2023/07/16 11:50:19;;;;;;;5.72;2.08;;;23.90;99.90;;;;;;5109556;28;20051;-70
2023/07/16 11:52:56;;;;;;;4.65;1.90;;;24.10;99.90;;;;;;5108816;28;20023;-70
2023/07/16 11:55:22;;;;;;;5.63;2.00;;;24.00;99.90;;;;;;5103296;28;20066;-70
2023/07/16 11:57:47;;;;;;;7.53;2.00;;;23.40;99.90;;;;;;5110710;27;20510;-72
2023/07/16 12:00:13;;;;;;;5.07;2.20;;;23.30;99.90;;;;;;5106848;28;20027;-70
2023/07/16 12:02:39;;;;;;;2.97;2.15;;;23.60;99.90;;;;;;5095203;28;20042;-71
2023/07/16 12:05:05;;;;;;;5.78;2.25;;;23.90;99.90;;;;;;5099937;28;20340;-72
2023/07/16 12:07:37;;;;;;;4.90;2.60;;;23.70;99.90;;;;;;5103697;28;20766;-70
2023/07/16 12:10:06;;;;;;;4.10;2.45;;;23.40;99.90;;;;;;5099105;28;20031;-72
2023/07/16 12:12:32;;;;;;;9.15;1.98;;;23.60;99.90;;;;;;5099681;28;20095;-71
2023/07/16 12:14:57;;;;;;;5.15;2.42;;;23.90;99.90;;;;;;5107353;28;20027;-71
2023/07/16 12:17:23;;;;;;;4.53;2.20;;;24.00;99.90;;;;;;5099367;28;20062;-72
2023/07/16 12:19:49;;;;;;;4.97;2.47;;;24.70;99.90;;;;;;5096782;28;20055;-71
2023/07/16 12:22:17;;;;;;;9.90;2.35;;;24.90;99.90;;;;;;5096157;28;20146;-71
2023/07/16 12:24:43;;;;;;;6.60;2.22;;;25.00;99.90;;;;;;5108489;27;20031;-71
2023/07/16 12:27:09;;;;;;;3.40;2.00;;;25.10;99.90;;;;;;5101267;28;20084;-71
2023/07/16 12:29:34;;;;;;;4.82;2.40;;;25.00;99.90;;;;;;5108713;27;20042;-72
2023/07/16 12:32:00;;;;;;;4.70;2.25;;;24.40;99.90;;;;;;5107948;28;20026;-71
2023/07/16 12:34:26;;;;;;;3.88;1.95;;;24.20;99.90;;;;;;5107860;28;20039;-72
2023/07/16 12:36:51;;;;;;;5.15;2.53;;;24.60;99.90;;;;;;5107996;27;20027;-72
2023/07/16 12:39:17;;;;;;;7.90;2.35;;;25.10;99.90;;;;;;5107092;28;20024;-71
2023/07/16 12:41:43;;;;;;;5.60;2.40;;;25.10;99.90;;;;;;5107270;28;20052;-72
2023/07/16 12:44:09;;;;;;;4.40;2.00;;;24.90;99.40;;;;;;5106361;28;20028;-72